AVA9758 SKBO-SKCG
Flight info
| Callsign | AVA9758 |
|---|---|
| Flight time | 0h 59m |
| Altitude | 36000 |
| Route | OSUSU4R GIKPU UQ120 DIBAM UW10 UGREB UGREB3B |
| Aircraft | A320/M-SDE3FGHIRWY/LB1 |
Departure
| Time | 2026-05-03 22:47 |
|---|---|
| Airport | El Dorado International Airport (SKBO) |
Arrival
| Time | 2026-05-03 23:47 |
|---|---|
| Airport | Rafael Nuñez International Airport (SKCG) |
| Time | Latitude | Longitude | Altitude | Speed | Heading |
|---|---|---|---|---|---|
| 2026-05-03 22:15 | 4.69785 | -74.14534 | 8373 ft | 0 kts | 37° |
| 2026-05-03 22:35 | 4.69782 | -74.14536 | 8371 ft | 3 kts | 37° |
| 2026-05-03 22:35 | 4.69766 | -74.14549 | 8373 ft | 2 kts | 36° |
| 2026-05-03 22:36 | 4.69749 | -74.14557 | 8373 ft | 3 kts | 352° |
| 2026-05-03 22:36 | 4.69729 | -74.14549 | 8372 ft | 3 kts | 318° |
| 2026-05-03 22:36 | 4.69718 | -74.14537 | 8373 ft | 0 kts | 307° |
| 2026-05-03 22:38 | 4.69719 | -74.14539 | 8373 ft | 1 kts | 307° |
| 2026-05-03 22:39 | 4.69732 | -74.14556 | 8369 ft | 5 kts | 308° |
| 2026-05-03 22:39 | 4.69771 | -74.14606 | 8373 ft | 13 kts | 307° |
| 2026-05-03 22:39 | 4.69825 | -74.14678 | 8373 ft | 13 kts | 307° |
| 2026-05-03 22:39 | 4.69876 | -74.14748 | 8372 ft | 12 kts | 307° |
| 2026-05-03 22:40 | 4.69940 | -74.14774 | 8372 ft | 11 kts | 20° |
| 2026-05-03 22:40 | 4.70000 | -74.14736 | 8372 ft | 10 kts | 38° |
| 2026-05-03 22:40 | 4.70049 | -74.14697 | 8373 ft | 8 kts | 37° |
| 2026-05-03 22:40 | 4.70091 | -74.14665 | 8373 ft | 7 kts | 37° |
| 2026-05-03 22:41 | 4.70135 | -74.14632 | 8373 ft | 11 kts | 37° |
| 2026-05-03 22:41 | 4.70218 | -74.14569 | 8372 ft | 18 kts | 37° |
| 2026-05-03 22:41 | 4.70294 | -74.14512 | 8373 ft | 9 kts | 37° |
| 2026-05-03 22:41 | 4.70342 | -74.14476 | 8371 ft | 8 kts | 37° |
| 2026-05-03 22:42 | 4.70381 | -74.14446 | 8373 ft | 6 kts | 37° |
| 2026-05-03 22:42 | 4.70409 | -74.14425 | 8370 ft | 4 kts | 37° |
| 2026-05-03 22:42 | 4.70426 | -74.14412 | 8373 ft | 2 kts | 37° |
| 2026-05-03 22:42 | 4.70434 | -74.14407 | 8373 ft | 2 kts | 33° |
| 2026-05-03 22:43 | 4.70473 | -74.14404 | 8373 ft | 8 kts | 340° |
| 2026-05-03 22:43 | 4.70516 | -74.14448 | 8373 ft | 10 kts | 306° |
| 2026-05-03 22:43 | 4.70560 | -74.14508 | 8373 ft | 11 kts | 306° |
| 2026-05-03 22:43 | 4.70608 | -74.14573 | 8372 ft | 13 kts | 307° |
| 2026-05-03 22:44 | 4.70670 | -74.14653 | 8373 ft | 15 kts | 308° |
| 2026-05-03 22:44 | 4.70738 | -74.14741 | 8371 ft | 17 kts | 308° |
| 2026-05-03 22:44 | 4.70811 | -74.14838 | 8373 ft | 18 kts | 307° |
| 2026-05-03 22:44 | 4.70887 | -74.14939 | 8374 ft | 19 kts | 307° |
| 2026-05-03 22:45 | 4.70967 | -74.15045 | 8373 ft | 19 kts | 307° |
| 2026-05-03 22:45 | 4.71049 | -74.15154 | 8373 ft | 20 kts | 307° |
| 2026-05-03 22:45 | 4.71126 | -74.15220 | 8370 ft | 13 kts | 349° |
| 2026-05-03 22:45 | 4.71212 | -74.15229 | 8373 ft | 8 kts | 354° |
| 2026-05-03 22:46 | 4.71275 | -74.15230 | 8372 ft | 10 kts | 9° |
| 2026-05-03 22:46 | 4.71321 | -74.15185 | 8372 ft | 9 kts | 98° |
| 2026-05-03 22:46 | 4.71270 | -74.15117 | 8371 ft | 22 kts | 127° |
| 2026-05-03 22:46 | 4.71039 | -74.14813 | 8370 ft | 90 kts | 127° |
| 2026-05-03 22:47 | 4.70531 | -74.14140 | 8371 ft | 150 kts | 127° |
| 2026-05-03 22:47 | 4.69805 | -74.13179 | 8510 ft | 182 kts | 128° |
| 2026-05-03 22:47 | 4.69016 | -74.12153 | 9066 ft | 191 kts | 126° |
| 2026-05-03 22:47 | 4.68531 | -74.10923 | 9606 ft | 193 kts | 87° |
| 2026-05-03 22:48 | 4.68960 | -74.09689 | 9926 ft | 192 kts | 41° |
| 2026-05-03 22:48 | 4.70119 | -74.09094 | 10228 ft | 190 kts | 8° |
| 2026-05-03 22:48 | 4.71432 | -74.08825 | 10626 ft | 194 kts | 13° |
| 2026-05-03 22:48 | 4.72723 | -74.08451 | 11146 ft | 193 kts | 16° |
| 2026-05-03 22:49 | 4.74005 | -74.08042 | 11555 ft | 197 kts | 19° |
| 2026-05-03 22:49 | 4.74917 | -74.07741 | 11642 ft | 211 kts | 19° |
| 2026-05-03 22:49 | 4.75871 | -74.07423 | 11732 ft | 225 kts | 20° |
| 2026-05-03 22:50 | 4.79867 | -74.06091 | 12544 ft | 262 kts | 20° |
| 2026-05-03 22:50 | 4.81671 | -74.05483 | 12747 ft | 285 kts | 20° |
| 2026-05-03 22:50 | 4.83615 | -74.04825 | 13100 ft | 301 kts | 20° |
| 2026-05-03 22:50 | 4.85625 | -74.04144 | 13699 ft | 308 kts | 20° |
| 2026-05-03 22:51 | 4.87669 | -74.03451 | 14376 ft | 312 kts | 20° |
| 2026-05-03 22:51 | 4.89737 | -74.02751 | 15035 ft | 316 kts | 20° |
| 2026-05-03 22:51 | 4.91861 | -74.02033 | 15701 ft | 320 kts | 20° |
| 2026-05-03 22:51 | 4.93953 | -74.01325 | 16319 ft | 323 kts | 20° |
| 2026-05-03 22:52 | 4.96095 | -74.00601 | 16928 ft | 327 kts | 21° |
| 2026-05-03 22:52 | 4.98262 | -73.99870 | 17540 ft | 331 kts | 21° |
| 2026-05-03 22:52 | 5.00454 | -73.99127 | 18120 ft | 335 kts | 21° |
| 2026-05-03 22:52 | 5.02706 | -73.98384 | 18425 ft | 348 kts | 19° |
| 2026-05-03 22:53 | 5.05102 | -73.97710 | 18544 ft | 366 kts | 17° |
| 2026-05-03 22:53 | 5.07633 | -73.97079 | 18683 ft | 383 kts | 15° |
| 2026-05-03 22:53 | 5.10282 | -73.96456 | 18836 ft | 398 kts | 15° |
| 2026-05-03 22:53 | 5.13002 | -73.95822 | 19214 ft | 404 kts | 15° |
| 2026-05-03 22:54 | 5.15758 | -73.95171 | 19685 ft | 409 kts | 15° |
| 2026-05-03 22:54 | 5.18535 | -73.94502 | 20178 ft | 413 kts | 15° |
| 2026-05-03 22:54 | 5.21334 | -73.93814 | 20668 ft | 416 kts | 15° |
| 2026-05-03 22:54 | 5.24154 | -73.93109 | 21118 ft | 419 kts | 16° |
| 2026-05-03 22:55 | 5.26994 | -73.92394 | 21557 ft | 422 kts | 15° |
| 2026-05-03 22:55 | 5.29852 | -73.91678 | 21997 ft | 425 kts | 15° |
| 2026-05-03 22:55 | 5.32734 | -73.90960 | 22417 ft | 428 kts | 15° |
| 2026-05-03 22:55 | 5.35634 | -73.90239 | 22808 ft | 431 kts | 15° |
| 2026-05-03 22:56 | 5.38557 | -73.89514 | 23190 ft | 434 kts | 15° |
| 2026-05-03 22:56 | 5.41495 | -73.88783 | 23531 ft | 437 kts | 15° |
| 2026-05-03 22:56 | 5.44448 | -73.88045 | 23887 ft | 439 kts | 15° |
| 2026-05-03 22:56 | 5.47422 | -73.87302 | 24234 ft | 441 kts | 15° |
| 2026-05-03 22:57 | 5.50411 | -73.86557 | 24572 ft | 444 kts | 15° |
| 2026-05-03 22:57 | 5.53415 | -73.85808 | 24899 ft | 446 kts | 14° |
| 2026-05-03 22:57 | 5.56446 | -73.85103 | 25210 ft | 448 kts | 13° |
| 2026-05-03 22:57 | 5.59503 | -73.84456 | 25516 ft | 450 kts | 12° |
| 2026-05-03 22:58 | 5.62585 | -73.83844 | 25817 ft | 453 kts | 12° |
| 2026-05-03 22:58 | 5.65684 | -73.83244 | 26111 ft | 455 kts | 12° |
| 2026-05-03 22:58 | 5.68796 | -73.82638 | 26392 ft | 457 kts | 12° |
| 2026-05-03 22:58 | 5.71923 | -73.82017 | 26668 ft | 459 kts | 12° |
| 2026-05-03 22:59 | 5.75054 | -73.81378 | 26930 ft | 460 kts | 12° |
| 2026-05-03 22:59 | 5.78200 | -73.80727 | 27188 ft | 463 kts | 12° |
| 2026-05-03 22:59 | 5.81362 | -73.80072 | 27447 ft | 465 kts | 12° |
| 2026-05-03 22:59 | 5.84533 | -73.79415 | 27693 ft | 466 kts | 12° |
| 2026-05-03 23:00 | 5.87716 | -73.78756 | 27935 ft | 468 kts | 12° |
| 2026-05-03 23:00 | 5.90907 | -73.78096 | 28131 ft | 469 kts | 12° |
| 2026-05-03 23:00 | 5.94108 | -73.77436 | 28304 ft | 471 kts | 12° |
| 2026-05-03 23:00 | 5.97325 | -73.76773 | 28484 ft | 473 kts | 12° |
| 2026-05-03 23:01 | 6.00555 | -73.76106 | 28719 ft | 474 kts | 12° |
| 2026-05-03 23:01 | 6.03793 | -73.75439 | 28916 ft | 476 kts | 12° |
| 2026-05-03 23:01 | 6.07040 | -73.74771 | 29111 ft | 478 kts | 12° |
| 2026-05-03 23:01 | 6.10299 | -73.74100 | 29291 ft | 479 kts | 12° |
| 2026-05-03 23:02 | 6.13562 | -73.73427 | 29468 ft | 480 kts | 12° |
| 2026-05-03 23:02 | 6.16842 | -73.72750 | 29645 ft | 481 kts | 12° |
| 2026-05-03 23:02 | 6.20125 | -73.72074 | 29849 ft | 481 kts | 12° |
| 2026-05-03 23:02 | 6.23405 | -73.71399 | 30094 ft | 481 kts | 12° |
| 2026-05-03 23:03 | 6.26678 | -73.70728 | 30335 ft | 480 kts | 12° |
| 2026-05-03 23:03 | 6.29945 | -73.70059 | 30574 ft | 479 kts | 12° |
| 2026-05-03 23:03 | 6.33215 | -73.69388 | 30824 ft | 479 kts | 12° |
| 2026-05-03 23:03 | 6.36473 | -73.68717 | 31091 ft | 477 kts | 12° |
| 2026-05-03 23:04 | 6.39723 | -73.68045 | 31357 ft | 476 kts | 12° |
| 2026-05-03 23:04 | 6.42965 | -73.67373 | 31620 ft | 475 kts | 12° |
| 2026-05-03 23:04 | 6.46199 | -73.66703 | 31888 ft | 474 kts | 12° |
| 2026-05-03 23:04 | 6.49424 | -73.66035 | 32147 ft | 473 kts | 12° |
| 2026-05-03 23:05 | 6.52648 | -73.65368 | 32402 ft | 472 kts | 12° |
| 2026-05-03 23:05 | 6.55862 | -73.64705 | 32660 ft | 471 kts | 12° |
| 2026-05-03 23:05 | 6.59074 | -73.64043 | 32919 ft | 471 kts | 12° |
| 2026-05-03 23:05 | 6.62276 | -73.63383 | 33189 ft | 470 kts | 12° |
| 2026-05-03 23:06 | 6.65476 | -73.62725 | 33443 ft | 469 kts | 12° |
| 2026-05-03 23:06 | 6.68670 | -73.62065 | 33712 ft | 468 kts | 12° |
| 2026-05-03 23:06 | 6.71859 | -73.61406 | 33989 ft | 467 kts | 12° |
| 2026-05-03 23:06 | 6.75038 | -73.60751 | 34256 ft | 466 kts | 12° |
| 2026-05-03 23:07 | 6.78216 | -73.60099 | 34507 ft | 466 kts | 12° |
| 2026-05-03 23:07 | 6.81387 | -73.59447 | 34749 ft | 465 kts | 12° |
| 2026-05-03 23:07 | 6.84553 | -73.58794 | 34977 ft | 464 kts | 12° |
| 2026-05-03 23:07 | 6.87714 | -73.58141 | 35205 ft | 463 kts | 12° |
| 2026-05-03 23:08 | 6.90871 | -73.57488 | 35427 ft | 463 kts | 12° |
| 2026-05-03 23:08 | 6.94020 | -73.56841 | 35643 ft | 461 kts | 12° |
| 2026-05-03 23:08 | 6.97181 | -73.56282 | 35811 ft | 462 kts | 6° |
| 2026-05-03 23:09 | 7.03561 | -73.56328 | 35871 ft | 463 kts | 358° |
| 2026-05-03 23:09 | 7.09988 | -73.56643 | 35862 ft | 462 kts | 358° |
| 2026-05-03 23:10 | 7.16416 | -73.56957 | 35873 ft | 462 kts | 358° |
| 2026-05-03 23:10 | 7.22836 | -73.57265 | 35872 ft | 462 kts | 358° |
| 2026-05-03 23:11 | 7.29261 | -73.57573 | 35881 ft | 462 kts | 358° |
| 2026-05-03 23:11 | 7.35682 | -73.57879 | 35885 ft | 462 kts | 358° |
| 2026-05-03 23:12 | 7.42107 | -73.58187 | 35896 ft | 462 kts | 358° |
| 2026-05-03 23:12 | 7.48534 | -73.58488 | 35905 ft | 463 kts | 358° |
| 2026-05-03 23:13 | 7.54962 | -73.58791 | 35918 ft | 463 kts | 358° |
| 2026-05-03 23:13 | 7.61396 | -73.59089 | 35924 ft | 463 kts | 358° |
| 2026-05-03 23:14 | 7.67825 | -73.59387 | 35927 ft | 462 kts | 358° |
| 2026-05-03 23:14 | 7.74250 | -73.59698 | 35931 ft | 463 kts | 357° |
| 2026-05-03 23:15 | 7.80685 | -73.60015 | 35936 ft | 463 kts | 357° |
| 2026-05-03 23:15 | 7.86033 | -73.60274 | 35939 ft | 463 kts | 358° |
| 2026-05-03 23:16 | 7.92465 | -73.60584 | 35940 ft | 463 kts | 358° |
| 2026-05-03 23:16 | 7.98753 | -73.61722 | 35939 ft | 462 kts | 335° |
| 2026-05-03 23:16 | 8.01491 | -73.63404 | 35933 ft | 462 kts | 320° |
| 2026-05-03 23:17 | 8.03876 | -73.65580 | 35925 ft | 462 kts | 317° |
| 2026-05-03 23:17 | 8.08581 | -73.69994 | 35913 ft | 462 kts | 317° |
| 2026-05-03 23:18 | 8.13334 | -73.74365 | 35908 ft | 462 kts | 320° |
| 2026-05-03 23:18 | 8.18304 | -73.78494 | 35905 ft | 462 kts | 322° |
| 2026-05-03 23:19 | 8.23345 | -73.82537 | 35902 ft | 463 kts | 322° |
| 2026-05-03 23:19 | 8.28358 | -73.86631 | 35900 ft | 464 kts | 321° |
| 2026-05-03 23:20 | 8.33338 | -73.90771 | 35901 ft | 463 kts | 321° |
| 2026-05-03 23:20 | 8.38304 | -73.94921 | 35902 ft | 463 kts | 321° |
| 2026-05-03 23:21 | 8.43279 | -73.99058 | 35902 ft | 463 kts | 321° |
| 2026-05-03 23:21 | 8.48258 | -74.03195 | 35900 ft | 463 kts | 321° |
| 2026-05-03 23:22 | 8.55727 | -74.09392 | 35900 ft | 463 kts | 321° |
| 2026-05-03 23:22 | 8.60710 | -74.13531 | 35890 ft | 464 kts | 321° |
| 2026-05-03 23:23 | 8.65687 | -74.17671 | 35882 ft | 463 kts | 321° |
| 2026-05-03 23:23 | 8.70664 | -74.21809 | 35875 ft | 464 kts | 321° |
| 2026-05-03 23:24 | 8.75645 | -74.25950 | 35879 ft | 464 kts | 321° |
| 2026-05-03 23:24 | 8.80624 | -74.30097 | 35876 ft | 464 kts | 321° |
| 2026-05-03 23:25 | 8.85602 | -74.34241 | 35881 ft | 464 kts | 321° |
| 2026-05-03 23:25 | 8.90580 | -74.38388 | 35883 ft | 464 kts | 321° |
| 2026-05-03 23:26 | 8.95521 | -74.42510 | 35884 ft | 463 kts | 321° |
| 2026-05-03 23:26 | 9.00487 | -74.46657 | 35881 ft | 463 kts | 321° |
| 2026-05-03 23:27 | 9.05454 | -74.50794 | 35752 ft | 463 kts | 321° |
| 2026-05-03 23:27 | 9.07942 | -74.52870 | 35013 ft | 465 kts | 320° |
| 2026-05-03 23:27 | 9.10450 | -74.54961 | 34086 ft | 468 kts | 320° |
| 2026-05-03 23:28 | 9.12995 | -74.57082 | 33107 ft | 470 kts | 320° |
| 2026-05-03 23:28 | 9.15493 | -74.59166 | 32037 ft | 474 kts | 320° |
| 2026-05-03 23:28 | 9.18043 | -74.61297 | 30969 ft | 476 kts | 320° |
| 2026-05-03 23:28 | 9.20606 | -74.63437 | 29787 ft | 480 kts | 320° |
| 2026-05-03 23:29 | 9.23194 | -74.65597 | 28549 ft | 484 kts | 320° |
| 2026-05-03 23:29 | 9.25802 | -74.67776 | 27344 ft | 487 kts | 320° |
| 2026-05-03 23:29 | 9.28390 | -74.69938 | 26674 ft | 478 kts | 320° |
| 2026-05-03 23:29 | 9.30937 | -74.72068 | 25874 ft | 472 kts | 320° |
| 2026-05-03 23:30 | 9.33456 | -74.74177 | 25104 ft | 467 kts | 319° |
| 2026-05-03 23:30 | 9.35946 | -74.76265 | 24347 ft | 463 kts | 319° |
| 2026-05-03 23:30 | 9.38413 | -74.78332 | 23615 ft | 458 kts | 319° |
| 2026-05-03 23:30 | 9.40856 | -74.80372 | 22892 ft | 453 kts | 320° |
| 2026-05-03 23:31 | 9.43279 | -74.82395 | 22202 ft | 449 kts | 320° |
| 2026-05-03 23:31 | 9.45676 | -74.84399 | 21546 ft | 445 kts | 320° |
| 2026-05-03 23:31 | 9.48050 | -74.86386 | 20913 ft | 441 kts | 320° |
| 2026-05-03 23:31 | 9.50401 | -74.88354 | 20312 ft | 436 kts | 320° |
| 2026-05-03 23:32 | 9.52729 | -74.90300 | 19721 ft | 432 kts | 320° |
| 2026-05-03 23:32 | 9.55033 | -74.92225 | 19170 ft | 427 kts | 320° |
| 2026-05-03 23:32 | 9.57317 | -74.94134 | 18620 ft | 423 kts | 320° |
| 2026-05-03 23:32 | 9.59573 | -74.96024 | 18099 ft | 419 kts | 321° |
| 2026-05-03 23:33 | 9.61806 | -74.97895 | 17576 ft | 414 kts | 321° |
| 2026-05-03 23:33 | 9.64014 | -74.99746 | 17050 ft | 410 kts | 321° |
| 2026-05-03 23:33 | 9.66198 | -75.01577 | 16497 ft | 406 kts | 321° |
| 2026-05-03 23:33 | 9.68362 | -75.03390 | 16089 ft | 399 kts | 321° |
| 2026-05-03 23:34 | 9.70492 | -75.05174 | 15561 ft | 396 kts | 321° |
| 2026-05-03 23:34 | 9.72607 | -75.06944 | 15014 ft | 393 kts | 321° |
| 2026-05-03 23:34 | 9.74705 | -75.08702 | 14451 ft | 390 kts | 321° |
| 2026-05-03 23:34 | 9.76793 | -75.10454 | 13881 ft | 388 kts | 321° |
| 2026-05-03 23:35 | 9.78863 | -75.12196 | 13300 ft | 386 kts | 321° |
| 2026-05-03 23:35 | 9.80924 | -75.13928 | 12712 ft | 383 kts | 321° |
| 2026-05-03 23:35 | 9.82969 | -75.15645 | 12112 ft | 380 kts | 321° |
| 2026-05-03 23:35 | 9.84999 | -75.17350 | 11506 ft | 378 kts | 321° |
| 2026-05-03 23:36 | 9.87015 | -75.19043 | 10893 ft | 375 kts | 321° |
| 2026-05-03 23:36 | 9.88994 | -75.20705 | 10665 ft | 361 kts | 321° |
| 2026-05-03 23:36 | 9.90888 | -75.22297 | 10539 ft | 346 kts | 321° |
| 2026-05-03 23:36 | 9.92704 | -75.23823 | 10409 ft | 332 kts | 321° |
| 2026-05-03 23:37 | 9.94449 | -75.25290 | 10286 ft | 319 kts | 321° |
| 2026-05-03 23:37 | 9.96129 | -75.26698 | 10131 ft | 308 kts | 321° |
| 2026-05-03 23:37 | 9.97769 | -75.28067 | 9884 ft | 302 kts | 321° |
| 2026-05-03 23:37 | 9.99386 | -75.29416 | 9740 ft | 301 kts | 321° |
| 2026-05-03 23:38 | 10.01012 | -75.30772 | 9254 ft | 303 kts | 321° |
| 2026-05-03 23:38 | 10.02637 | -75.32130 | 8762 ft | 304 kts | 321° |
| 2026-05-03 23:38 | 10.04253 | -75.33482 | 8450 ft | 298 kts | 321° |
| 2026-05-03 23:38 | 10.05846 | -75.34818 | 8045 ft | 296 kts | 321° |
| 2026-05-03 23:39 | 10.07427 | -75.36144 | 7648 ft | 294 kts | 321° |
| 2026-05-03 23:39 | 10.08994 | -75.37459 | 7246 ft | 291 kts | 321° |
| 2026-05-03 23:39 | 10.10541 | -75.38758 | 6686 ft | 286 kts | 321° |
| 2026-05-03 23:39 | 10.12069 | -75.40037 | 5995 ft | 283 kts | 321° |
| 2026-05-03 23:40 | 10.13575 | -75.41299 | 5309 ft | 278 kts | 321° |
| 2026-05-03 23:40 | 10.15053 | -75.42541 | 4605 ft | 274 kts | 321° |
| 2026-05-03 23:40 | 10.16498 | -75.43752 | 3923 ft | 271 kts | 321° |
| 2026-05-03 23:40 | 10.17912 | -75.44936 | 3665 ft | 252 kts | 320° |
| 2026-05-03 23:41 | 10.19226 | -75.46036 | 3572 ft | 238 kts | 320° |
| 2026-05-03 23:41 | 10.20469 | -75.47076 | 3474 ft | 225 kts | 320° |
| 2026-05-03 23:41 | 10.21654 | -75.48068 | 3380 ft | 218 kts | 320° |
| 2026-05-03 23:41 | 10.22817 | -75.49045 | 3287 ft | 215 kts | 320° |
| 2026-05-03 23:42 | 10.23941 | -75.49991 | 3191 ft | 205 kts | 320° |
| 2026-05-03 23:42 | 10.25013 | -75.50892 | 3107 ft | 196 kts | 320° |
| 2026-05-03 23:42 | 10.26082 | -75.51649 | 3037 ft | 181 kts | 335° |
| 2026-05-03 23:42 | 10.27262 | -75.51952 | 2873 ft | 172 kts | 355° |
| 2026-05-03 23:43 | 10.28445 | -75.51913 | 2668 ft | 168 kts | 360° |
| 2026-05-03 23:43 | 10.29602 | -75.51864 | 2469 ft | 164 kts | 0° |
| 2026-05-03 23:43 | 10.30710 | -75.51818 | 2297 ft | 155 kts | 0° |
| 2026-05-03 23:43 | 10.31775 | -75.51773 | 2138 ft | 152 kts | 1° |
| 2026-05-03 23:44 | 10.32823 | -75.51733 | 1970 ft | 150 kts | 1° |
| 2026-05-03 23:44 | 10.33867 | -75.51691 | 1794 ft | 150 kts | 2° |
| 2026-05-03 23:44 | 10.34909 | -75.51652 | 1624 ft | 149 kts | 3° |
| 2026-05-03 23:44 | 10.35939 | -75.51614 | 1434 ft | 147 kts | 4° |
| 2026-05-03 23:45 | 10.36945 | -75.51576 | 1258 ft | 141 kts | 2° |
| 2026-05-03 23:45 | 10.37908 | -75.51538 | 1052 ft | 137 kts | 2° |
| 2026-05-03 23:45 | 10.38854 | -75.51499 | 871 ft | 135 kts | 2° |
| 2026-05-03 23:45 | 10.39794 | -75.51461 | 679 ft | 135 kts | 2° |
| 2026-05-03 23:46 | 10.40732 | -75.51430 | 489 ft | 135 kts | 2° |
| 2026-05-03 23:46 | 10.41667 | -75.51386 | 303 ft | 135 kts | 2° |
| 2026-05-03 23:46 | 10.42604 | -75.51358 | 140 ft | 134 kts | 3° |
| 2026-05-03 23:46 | 10.43524 | -75.51320 | 18 ft | 124 kts | 2° |
| 2026-05-03 23:47 | 10.44181 | -75.51293 | 13 ft | 60 kts | 2° |
| 2026-05-03 23:47 | 10.44479 | -75.51282 | 15 ft | 16 kts | 2° |
| 2026-05-03 23:47 | 10.44538 | -75.51324 | 15 ft | 11 kts | 284° |
| 2026-05-03 23:47 | 10.44549 | -75.51400 | 14 ft | 10 kts | 274° |
| 2026-05-03 23:48 | 10.44558 | -75.51462 | 14 ft | 8 kts | 281° |
| 2026-05-03 23:48 | 10.44560 | -75.51513 | 16 ft | 7 kts | 272° |
| 2026-05-03 23:48 | 10.44562 | -75.51553 | 14 ft | 3 kts | 272° |
| 2026-05-03 23:48 | 10.44563 | -75.51561 | 14 ft | 0 kts | 272° |
| 2026-05-03 23:49 | 10.44563 | -75.51563 | 14 ft | 0 kts | 272° |